createdAt,value
2022-09-20T00:01:14.705Z,1.83
2022-09-20T00:03:43.630Z,2.13
2022-09-20T00:06:15.458Z,2.28
2022-09-20T00:08:42.269Z,2.00
2022-09-20T00:11:11.727Z,1.98
2022-09-20T00:13:39.166Z,2.60
2022-09-20T00:16:07.788Z,1.83
2022-09-20T00:18:34.420Z,1.92
2022-09-20T00:21:00.925Z,2.15
2022-09-20T00:23:27.295Z,2.00
2022-09-20T00:26:11.915Z,1.45
2022-09-20T00:28:38.379Z,1.63
2022-09-20T00:31:04.983Z,2.10
2022-09-20T00:33:49.746Z,1.55
2022-09-20T00:36:16.650Z,2.10
2022-09-20T00:38:43.055Z,2.35
2022-09-20T00:41:10.549Z,1.60
2022-09-20T00:43:46.750Z,1.85
2022-09-20T00:46:36.851Z,1.88
2022-09-20T00:49:17.895Z,3.20
2022-09-20T00:51:51.028Z,2.05
2022-09-20T00:54:20.818Z,2.33
2022-09-20T00:56:48.682Z,2.00
2022-09-20T00:59:37.650Z,1.95
2022-09-20T01:02:18.351Z,2.67
2022-09-20T01:04:47.384Z,2.30
2022-09-20T01:07:17.295Z,1.70
2022-09-20T01:09:43.781Z,2.35
2022-09-20T01:12:14.985Z,2.30
2022-09-20T01:14:43.950Z,1.88
2022-09-20T01:17:11.589Z,2.20
2022-09-20T01:20:06.187Z,2.33
2022-09-20T01:23:07.644Z,2.95
2022-09-20T01:25:36.716Z,2.10
2022-09-20T01:28:03.204Z,2.50
2022-09-20T01:30:38.777Z,1.90
2022-09-20T01:33:27.711Z,2.65
2022-09-20T01:35:56.548Z,2.60
2022-09-20T01:38:43.284Z,2.40
2022-09-20T01:41:16.759Z,2.28
2022-09-20T01:44:04.295Z,2.20
2022-09-20T01:46:36.070Z,2.50
2022-09-20T01:49:11.109Z,2.30
2022-09-20T01:54:57.940Z,2.13
2022-09-20T01:58:05.516Z,2.10
2022-09-20T02:01:03.964Z,2.08
2022-09-20T02:03:52.340Z,2.47
2022-09-20T02:06:46.578Z,2.30
2022-09-20T02:09:21.297Z,2.38
2022-09-20T02:12:10.073Z,2.50
2022-09-20T02:14:45.670Z,2.20
2022-09-20T02:17:38.961Z,1.90
2022-09-20T02:20:28.314Z,2.38
2022-09-20T02:23:19.080Z,2.53
2022-09-20T02:25:57.787Z,2.20
2022-09-20T02:28:55.001Z,2.00
2022-09-20T02:31:30.953Z,3.45
2022-09-20T02:34:15.192Z,2.15
2022-09-20T02:37:03.184Z,2.35
2022-09-20T02:39:37.015Z,2.70
2022-09-20T02:42:18.305Z,2.55
2022-09-20T02:44:47.517Z,2.53
2022-09-20T02:47:20.915Z,2.55
2022-09-20T02:50:21.432Z,2.42
2022-09-20T02:53:25.121Z,2.50
2022-09-20T02:56:07.048Z,2.25
2022-09-20T02:58:46.987Z,2.40
2022-09-20T03:01:19.945Z,2.15
2022-09-20T03:04:06.620Z,2.25
2022-09-20T03:07:14.685Z,2.13
2022-09-20T03:09:51.617Z,3.13
2022-09-20T03:12:49.297Z,2.30
2022-09-20T03:15:46.524Z,2.38
2022-09-20T03:18:17.673Z,2.53
2022-09-20T03:21:02.666Z,2.40
2022-09-20T03:23:44.257Z,2.20
2022-09-20T03:26:30.814Z,2.55
2022-09-20T03:29:02.740Z,3.00
2022-09-20T03:31:38.503Z,2.35
2022-09-20T03:34:14.058Z,2.60
2022-09-20T03:37:07.776Z,2.53
2022-09-20T03:40:06.257Z,2.38
2022-09-20T03:42:32.983Z,2.80
2022-09-20T03:45:20.336Z,2.30
2022-09-20T03:48:17.159Z,2.25
2022-09-20T03:51:01.175Z,2.17
2022-09-20T03:53:51.970Z,2.63
2022-09-20T03:56:40.283Z,2.30
2022-09-20T03:59:25.278Z,2.25
2022-09-20T04:02:20.801Z,2.28
2022-09-20T04:05:12.771Z,2.67
2022-09-20T04:08:06.360Z,2.40
2022-09-20T04:11:03.653Z,3.42
2022-09-20T04:13:40.333Z,3.10
2022-09-20T04:16:22.347Z,3.47
2022-09-20T04:19:00.817Z,4.00
2022-09-20T04:21:43.723Z,3.47
2022-09-20T04:24:23.454Z,3.05
2022-09-20T04:27:10.096Z,3.80
2022-09-20T04:29:59.269Z,2.95
2022-09-20T04:32:35.522Z,2.88
2022-09-20T04:35:32.955Z,3.47
2022-09-20T04:38:05.536Z,3.28
2022-09-20T04:40:41.264Z,3.08
2022-09-20T04:43:32.918Z,2.85
2022-09-20T04:46:20.828Z,2.97
2022-09-20T04:49:18.039Z,2.97
2022-09-20T04:52:04.078Z,3.17
2022-09-20T04:55:04.397Z,4.82
2022-09-20T04:58:21.082Z,2.65
2022-09-20T05:03:27.596Z,2.22
2022-09-20T05:06:15.933Z,2.28
2022-09-20T05:08:58.805Z,2.60
2022-09-20T05:11:31.466Z,3.00
2022-09-20T05:14:02.344Z,2.75
2022-09-20T05:17:00.095Z,2.45
2022-09-20T05:19:31.739Z,2.42
2022-09-20T05:22:13.297Z,2.45
2022-09-20T05:25:14.765Z,2.60
2022-09-20T05:27:54.167Z,2.40
2022-09-20T05:30:26.751Z,2.80
2022-09-20T05:33:05.655Z,2.78
2022-09-20T05:35:49.066Z,3.15
2022-09-20T05:38:43.443Z,2.75
2022-09-20T05:41:17.520Z,2.60
2022-09-20T05:44:21.292Z,3.03
2022-09-20T05:46:58.824Z,2.92
2022-09-20T05:49:52.593Z,3.05
2022-09-20T05:52:46.989Z,3.90
2022-09-20T05:55:38.186Z,4.10
2022-09-20T05:58:29.531Z,5.03
2022-09-20T06:01:04.309Z,4.32
2022-09-20T06:03:43.305Z,4.45
2022-09-20T06:06:32.398Z,4.85
2022-09-20T06:09:34.180Z,5.07
2022-09-20T06:12:21.917Z,6.20
2022-09-20T06:15:02.147Z,4.80
2022-09-20T06:17:34.857Z,4.82
2022-09-20T06:20:49.432Z,4.60
2022-09-20T06:23:16.229Z,4.53
2022-09-20T06:25:49.724Z,5.32
2022-09-20T06:28:39.754Z,4.85
2022-09-20T06:31:10.118Z,5.25
2022-09-20T06:33:49.934Z,4.88
2022-09-20T06:36:44.124Z,5.50
2022-09-20T06:39:39.003Z,5.13
2022-09-20T06:42:06.531Z,4.85
2022-09-20T06:44:32.859Z,5.45
2022-09-20T06:46:59.623Z,5.28
2022-09-20T06:49:27.256Z,4.93
2022-09-20T06:51:55.798Z,5.60
2022-09-20T06:54:23.201Z,5.03
2022-09-20T06:56:51.208Z,5.22
2022-09-20T06:59:17.577Z,5.35
2022-09-20T07:01:44.361Z,7.13
2022-09-20T07:04:10.808Z,5.00
2022-09-20T07:06:37.326Z,5.75
2022-09-20T07:09:05.075Z,5.55
2022-09-20T07:11:35.048Z,5.35
2022-09-20T07:14:01.855Z,5.78
2022-09-20T07:16:28.537Z,5.85
2022-09-20T07:18:56.750Z,6.30
2022-09-20T07:21:23.802Z,5.38
2022-09-20T07:23:51.243Z,5.43
2022-09-20T07:26:23.342Z,4.85
2022-09-20T07:28:50.546Z,5.28
2022-09-20T07:31:19.245Z,4.65
2022-09-20T07:33:46.140Z,4.05
2022-09-20T07:36:13.446Z,5.65
2022-09-20T07:38:40.624Z,4.05
2022-09-20T07:41:07.477Z,4.40
2022-09-20T07:43:33.969Z,4.75
2022-09-20T07:46:00.388Z,4.50
2022-09-20T07:48:30.189Z,4.50
2022-09-20T07:51:04.738Z,4.28
2022-09-20T07:53:34.844Z,3.88
2022-09-20T07:56:13.687Z,3.80
2022-09-20T07:58:41.509Z,3.30
2022-09-20T08:01:12.575Z,3.17
2022-09-20T08:03:40.430Z,3.08
2022-09-20T08:06:10.010Z,3.13
2022-09-20T08:08:38.032Z,2.30
2022-09-20T08:11:10.377Z,2.67
2022-09-20T08:14:08.266Z,2.08
2022-09-20T08:16:40.829Z,2.60
2022-09-20T08:19:07.340Z,2.40
2022-09-20T08:21:35.337Z,2.70
2022-09-20T08:24:02.588Z,2.15
2022-09-20T08:26:31.435Z,2.75
2022-09-20T08:28:59.464Z,2.38
2022-09-20T08:31:28.362Z,2.03
2022-09-20T08:33:55.020Z,2.00
2022-09-20T08:36:24.487Z,2.22
2022-09-20T08:41:46.058Z,1.52
2022-09-20T08:44:35.191Z,2.00
2022-09-20T08:47:22.581Z,1.92
2022-09-20T08:49:56.685Z,1.60
2022-09-20T08:52:36.953Z,2.47
2022-09-20T08:55:17.801Z,1.98
2022-09-20T08:57:48.983Z,2.28
2022-09-20T09:00:33.648Z,1.77
2022-09-20T09:03:05.581Z,2.05
2022-09-20T09:05:39.000Z,2.22
2022-09-20T09:08:18.582Z,2.40
2022-09-20T09:10:48.049Z,2.08
2022-09-20T09:13:25.925Z,1.90
2022-09-20T09:16:06.551Z,2.00
2022-09-20T09:18:37.445Z,2.25
2022-09-20T09:21:06.141Z,1.50
2022-09-20T09:23:43.898Z,1.88
2022-09-20T09:26:21.074Z,1.52
2022-09-20T09:28:48.373Z,2.05
2022-09-20T09:31:25.894Z,1.63
2022-09-20T09:33:52.401Z,1.67
2022-09-20T09:36:25.979Z,1.70
2022-09-20T09:39:16.225Z,1.60
2022-09-20T09:41:43.270Z,1.20
2022-09-20T09:44:27.717Z,1.38
2022-09-20T09:46:56.716Z,1.88
2022-09-20T09:49:25.808Z,1.42
2022-09-20T09:52:04.779Z,1.08
2022-09-20T09:54:48.846Z,1.30
2022-09-20T09:57:55.644Z,1.20
2022-09-20T10:00:27.265Z,1.20
2022-09-20T10:03:07.118Z,1.30
2022-09-20T10:05:51.932Z,1.25
2022-09-20T10:08:56.910Z,1.15
2022-09-20T10:12:07.918Z,1.38
2022-09-20T10:14:56.291Z,1.83
2022-09-20T10:17:34.216Z,1.45
2022-09-20T10:20:36.146Z,1.25
2022-09-20T10:23:58.662Z,0.98
2022-09-20T10:26:43.808Z,1.20
2022-09-20T10:29:28.902Z,3.10
2022-09-20T10:32:16.250Z,1.55
2022-09-20T10:35:10.691Z,1.30
2022-09-20T10:38:05.121Z,1.13
2022-09-20T10:40:53.205Z,1.30
2022-09-20T10:43:40.201Z,1.52
2022-09-20T10:46:34.106Z,0.98
2022-09-20T10:49:18.065Z,0.95
2022-09-20T10:51:54.564Z,1.10
2022-09-20T10:54:38.262Z,1.13
2022-09-20T10:57:22.965Z,1.20
2022-09-20T11:00:20.677Z,1.60
2022-09-20T11:03:12.005Z,1.48
2022-09-20T11:05:38.449Z,2.00
2022-09-20T11:08:13.204Z,1.50
2022-09-20T11:10:46.185Z,2.05
2022-09-20T11:13:33.900Z,1.33
2022-09-20T11:16:11.498Z,1.40
2022-09-20T11:18:47.210Z,1.48
2022-09-20T11:21:28.428Z,1.60
2022-09-20T11:24:14.998Z,1.15
2022-09-20T11:26:48.182Z,1.50
2022-09-20T11:29:33.238Z,0.90
2022-09-20T11:32:13.920Z,1.25
2022-09-20T11:34:56.335Z,0.80
2022-09-20T11:37:28.790Z,0.88
2022-09-20T11:39:56.006Z,0.75
2022-09-20T11:42:36.660Z,0.88
2022-09-20T11:45:04.246Z,1.20
2022-09-20T11:47:53.517Z,0.90
2022-09-20T11:50:38.310Z,0.90
2022-09-20T11:53:53.377Z,1.00
2022-09-20T11:56:28.796Z,1.55
2022-09-20T11:58:59.573Z,1.00
2022-09-20T12:01:28.752Z,1.02
2022-09-20T12:04:30.614Z,1.30
2022-09-20T12:07:18.409Z,1.13
2022-09-20T12:10:01.040Z,1.05
2022-09-20T12:12:39.533Z,1.15
2022-09-20T12:15:22.098Z,1.48
2022-09-20T12:17:48.423Z,1.60
2022-09-20T12:20:32.956Z,1.40
2022-09-20T12:23:36.747Z,1.60
2022-09-20T12:26:21.637Z,1.23
2022-09-20T12:28:53.265Z,1.50
2022-09-20T12:31:20.249Z,1.98
2022-09-20T12:34:10.687Z,1.23
2022-09-20T12:36:46.254Z,1.13
2022-09-20T12:39:15.163Z,1.33
2022-09-20T12:41:48.407Z,1.40
2022-09-20T12:44:38.022Z,1.10
2022-09-20T12:47:10.267Z,1.23
2022-09-20T12:50:08.042Z,1.10
2022-09-20T12:52:58.605Z,1.30
2022-09-20T12:55:31.463Z,1.30
2022-09-20T12:58:06.472Z,0.90
2022-09-20T13:00:33.530Z,0.82
2022-09-20T13:03:01.795Z,0.90
2022-09-20T13:05:40.779Z,0.95
2022-09-20T13:08:20.227Z,1.10
2022-09-20T13:10:58.866Z,1.15
2022-09-20T13:13:44.217Z,1.10
2022-09-20T13:16:22.627Z,1.13
2022-09-20T13:19:06.751Z,1.00
2022-09-20T13:21:53.977Z,1.63
2022-09-20T13:24:20.950Z,1.05
2022-09-20T13:26:49.415Z,0.70
2022-09-20T13:29:38.549Z,0.70
2022-09-20T13:32:25.120Z,1.52
2022-09-20T13:35:09.733Z,1.17
2022-09-20T13:37:45.149Z,1.30
2022-09-20T13:40:22.983Z,0.90
2022-09-20T13:42:52.383Z,1.10
2022-09-20T13:45:22.031Z,1.17
2022-09-20T13:47:51.441Z,0.90
2022-09-20T13:50:21.762Z,0.82
2022-09-20T13:52:51.866Z,0.95
2022-09-20T13:55:29.510Z,1.25
2022-09-20T13:57:59.013Z,0.98
2022-09-20T14:00:25.796Z,1.02
2022-09-20T14:02:57.039Z,0.90
2022-09-20T14:05:26.935Z,1.00
2022-09-20T14:07:53.837Z,0.95
2022-09-20T14:10:40.962Z,0.90
2022-09-20T14:13:11.477Z,0.90
2022-09-20T14:15:41.942Z,1.35
2022-09-20T14:18:14.802Z,1.20
2022-09-20T14:20:43.497Z,1.10
2022-09-20T14:23:27.511Z,1.20
2022-09-20T14:26:08.213Z,1.52
2022-09-20T14:28:34.693Z,2.72
2022-09-20T14:31:14.431Z,1.60
2022-09-20T14:33:43.872Z,1.27
2022-09-20T14:36:15.129Z,1.10
2022-09-20T14:38:45.209Z,0.93
2022-09-20T14:41:13.148Z,1.00
2022-09-20T14:43:40.964Z,0.90
2022-09-20T14:46:17.302Z,1.10
2022-09-20T14:48:45.388Z,1.00
2022-09-20T14:51:25.380Z,1.00
2022-09-20T14:54:13.297Z,0.80
2022-09-20T14:56:44.270Z,0.80
2022-09-20T14:59:20.786Z,0.85
2022-09-20T15:02:12.592Z,1.02
2022-09-20T15:04:42.163Z,0.85
2022-09-20T15:07:11.710Z,0.70
2022-09-20T15:09:38.291Z,1.00
2022-09-20T15:12:19.438Z,0.95
2022-09-20T15:14:46.956Z,1.13
2022-09-20T15:17:19.308Z,0.77
2022-09-20T15:19:47.542Z,0.88
2022-09-20T15:22:14.976Z,0.80
2022-09-20T15:24:42.202Z,0.55
2022-09-20T15:27:11.182Z,0.90
2022-09-20T15:29:37.579Z,0.77
2022-09-20T15:32:05.787Z,0.75
2022-09-20T15:34:32.623Z,1.45
2022-09-20T15:36:59.000Z,0.90
2022-09-20T15:39:25.907Z,1.35
2022-09-20T15:41:52.836Z,1.20
2022-09-20T15:44:19.836Z,0.90
2022-09-20T15:46:46.548Z,1.00
2022-09-20T15:49:13.053Z,0.95
2022-09-20T15:51:39.583Z,0.95
2022-09-20T15:54:07.638Z,0.82
2022-09-20T15:56:37.175Z,0.88
2022-09-20T15:59:06.252Z,0.73
2022-09-20T16:01:37.516Z,1.20
2022-09-20T16:04:21.213Z,0.90
2022-09-20T16:06:49.866Z,1.10
2022-09-20T16:09:16.382Z,0.98
2022-09-20T16:11:42.769Z,0.70
2022-09-20T16:14:09.113Z,1.00
2022-09-20T16:16:40.046Z,0.68
2022-09-20T16:19:23.893Z,1.30
2022-09-20T16:21:57.708Z,0.80
2022-09-20T16:24:29.999Z,0.80
2022-09-20T16:26:57.436Z,0.63
2022-09-20T16:29:25.642Z,0.70
2022-09-20T16:31:53.823Z,0.70
2022-09-20T16:34:30.161Z,1.00
2022-09-20T16:37:16.787Z,1.58
2022-09-20T16:39:44.602Z,1.05
2022-09-20T16:42:13.227Z,0.80
2022-09-20T16:44:42.605Z,1.17
2022-09-20T16:47:13.449Z,1.48
2022-09-20T16:49:39.862Z,0.75
2022-09-20T16:52:07.365Z,0.75
2022-09-20T16:54:34.484Z,1.02
2022-09-20T16:57:01.681Z,0.95
2022-09-20T16:59:28.548Z,0.75
2022-09-20T17:01:55.061Z,0.93
2022-09-20T17:04:21.554Z,1.08
2022-09-20T17:06:49.671Z,1.13
2022-09-20T17:09:16.575Z,1.20
2022-09-20T17:11:47.806Z,1.40
2022-09-20T17:14:16.400Z,1.02
2022-09-20T17:16:47.410Z,1.27
2022-09-20T17:19:16.498Z,1.33
2022-09-20T17:21:45.147Z,1.27
2022-09-20T17:24:13.712Z,1.17
2022-09-20T17:26:43.516Z,1.20
2022-09-20T17:29:13.818Z,1.00
2022-09-20T17:31:42.367Z,0.90
2022-09-20T17:34:11.076Z,1.05
2022-09-20T17:36:43.141Z,1.05
2022-09-20T17:39:12.581Z,1.00
2022-09-20T17:41:44.795Z,1.42
2022-09-20T17:44:12.179Z,1.33
2022-09-20T17:46:41.355Z,1.60
2022-09-20T17:49:11.352Z,1.30
2022-09-20T17:51:39.117Z,1.45
2022-09-20T17:54:06.244Z,1.05
2022-09-20T17:56:33.359Z,1.13
2022-09-20T17:59:01.981Z,1.50
2022-09-20T18:01:29.936Z,1.27
2022-09-20T18:03:58.666Z,1.60
2022-09-20T18:06:29.984Z,0.90
2022-09-20T18:09:02.641Z,1.40
2022-09-20T18:11:31.766Z,1.30
2022-09-20T18:13:59.267Z,1.20
2022-09-20T18:16:25.819Z,1.33
2022-09-20T18:18:52.481Z,1.40
2022-09-20T18:21:21.979Z,2.20
2022-09-20T18:23:49.744Z,1.40
2022-09-20T18:26:21.872Z,1.63
2022-09-20T18:29:01.336Z,1.85
2022-09-20T18:31:35.955Z,2.00
2022-09-20T18:34:04.892Z,2.10
2022-09-20T18:36:33.895Z,1.90
2022-09-20T18:39:01.147Z,2.33
2022-09-20T18:41:33.235Z,1.80
2022-09-20T18:44:01.113Z,1.60
2022-09-20T18:46:30.522Z,2.20
2022-09-20T18:48:59.916Z,1.98
2022-09-20T18:51:28.803Z,1.48
2022-09-20T18:53:56.397Z,1.70
2022-09-20T18:56:34.317Z,1.88
2022-09-20T18:59:14.177Z,2.00
2022-09-20T19:01:53.340Z,2.20
2022-09-20T19:04:41.733Z,1.92
2022-09-20T19:07:20.280Z,1.52
2022-09-20T19:10:08.380Z,1.75
2022-09-20T19:12:46.937Z,1.98
2022-09-20T19:15:50.376Z,2.10
2022-09-20T19:18:29.064Z,1.95
2022-09-20T19:21:16.662Z,2.10
2022-09-20T19:24:10.484Z,1.67
2022-09-20T19:26:38.544Z,1.90
2022-09-20T19:29:18.935Z,1.70
2022-09-20T19:31:48.671Z,1.60
2022-09-20T19:34:24.556Z,1.92
2022-09-20T19:37:04.548Z,1.85
2022-09-20T19:39:45.661Z,1.88
2022-09-20T19:42:53.827Z,2.30
2022-09-20T19:45:55.688Z,1.80
2022-09-20T19:48:28.168Z,2.53
2022-09-20T19:50:55.048Z,2.45
2022-09-20T19:53:28.054Z,2.78
2022-09-20T19:56:04.269Z,2.85
2022-09-20T19:58:30.922Z,2.67
2022-09-20T20:00:58.345Z,2.35
2022-09-20T20:03:27.371Z,2.70
2022-09-20T20:06:27.778Z,2.60
2022-09-20T20:09:00.420Z,2.90
2022-09-20T20:11:50.975Z,2.90
2022-09-20T20:14:39.852Z,2.15
2022-09-20T20:17:37.170Z,2.40
2022-09-20T20:20:40.817Z,2.28
2022-09-20T20:23:27.814Z,2.75
2022-09-20T20:26:03.316Z,2.88
2022-09-20T20:28:30.218Z,2.58
2022-09-20T20:31:00.015Z,2.25
2022-09-20T20:33:26.800Z,2.38
2022-09-20T20:35:55.648Z,2.08
2022-09-20T20:38:26.350Z,1.80
2022-09-20T20:41:05.129Z,2.10
2022-09-20T20:43:34.625Z,2.35
2022-09-20T20:46:01.214Z,2.15
2022-09-20T20:48:27.689Z,2.22
2022-09-20T20:51:11.693Z,2.42
2022-09-20T20:53:41.160Z,2.22
2022-09-20T20:56:09.395Z,2.75
2022-09-20T20:58:37.841Z,2.50
2022-09-20T21:01:10.220Z,2.15
2022-09-20T21:03:36.965Z,2.10
2022-09-20T21:06:06.643Z,1.88
2022-09-20T21:08:38.693Z,1.42
2022-09-20T21:11:11.459Z,2.17
2022-09-20T21:13:39.432Z,1.75
2022-09-20T21:16:08.734Z,1.90
2022-09-20T21:18:35.671Z,1.88
2022-09-20T21:21:03.256Z,2.40
2022-09-20T21:23:33.872Z,2.03
2022-09-20T21:26:10.693Z,1.98
2022-09-20T21:28:42.350Z,2.40
2022-09-20T21:31:10.992Z,2.00
2022-09-20T21:33:41.285Z,2.17
2022-09-20T21:36:15.419Z,2.20
2022-09-20T21:38:43.707Z,2.00
2022-09-20T21:41:13.096Z,1.80
2022-09-20T21:43:41.734Z,2.03
2022-09-20T21:46:19.060Z,1.98
2022-09-20T21:48:47.447Z,2.42
2022-09-20T21:51:16.166Z,2.08
2022-09-20T21:53:42.493Z,2.45
2022-09-20T21:56:11.701Z,1.90
2022-09-20T21:58:40.030Z,1.70
2022-09-20T22:01:11.860Z,1.85
2022-09-20T22:03:43.645Z,2.00
2022-09-20T22:06:24.682Z,1.42
2022-09-20T22:08:51.957Z,1.60
2022-09-20T22:11:20.299Z,1.58
2022-09-20T22:13:49.640Z,1.70
2022-09-20T22:16:18.905Z,1.83
2022-09-20T22:18:46.766Z,1.80
2022-09-20T22:21:18.932Z,1.80
2022-09-20T22:23:49.175Z,2.05
2022-09-20T22:26:17.863Z,1.85
2022-09-20T22:28:44.242Z,1.80
2022-09-20T22:31:14.296Z,1.80
2022-09-20T22:33:43.250Z,1.60
2022-09-20T22:36:12.503Z,1.98
2022-09-20T22:38:38.868Z,1.90
2022-09-20T22:41:06.086Z,1.70
2022-09-20T22:43:34.034Z,2.38
2022-09-20T22:46:03.894Z,1.80
2022-09-20T22:48:31.729Z,2.05
2022-09-20T22:50:59.726Z,2.40
2022-09-20T22:53:28.153Z,2.58
2022-09-20T22:55:54.589Z,2.63
2022-09-20T22:58:21.006Z,2.10
2022-09-20T23:00:47.357Z,1.90
2022-09-20T23:03:13.739Z,2.08
2022-09-20T23:05:40.122Z,2.13
2022-09-20T23:08:06.704Z,2.08
2022-09-20T23:10:33.196Z,2.00
2022-09-20T23:12:59.554Z,1.80
2022-09-20T23:15:25.915Z,2.17
2022-09-20T23:17:52.232Z,2.88
2022-09-20T23:20:18.552Z,2.00
2022-09-20T23:22:44.976Z,2.13
2022-09-20T23:25:11.328Z,2.75
2022-09-20T23:27:37.866Z,2.10
2022-09-20T23:30:05.286Z,2.17
2022-09-20T23:32:31.670Z,2.10
2022-09-20T23:34:58.018Z,2.13
2022-09-20T23:37:24.425Z,2.38
2022-09-20T23:39:50.951Z,2.20
2022-09-20T23:42:17.301Z,2.40
2022-09-20T23:44:43.686Z,1.98
2022-09-20T23:47:10.063Z,2.38
2022-09-20T23:49:36.735Z,2.20
2022-09-20T23:52:03.161Z,1.85
2022-09-20T23:54:29.524Z,2.33
2022-09-20T23:56:55.904Z,1.98
2022-09-20T23:59:22.840Z,1.52
